createdAt,value
2022-08-18T00:02:08.274Z,22.98
2022-08-18T00:04:49.141Z,25.33
2022-08-18T00:07:23.220Z,24.63
2022-08-18T00:09:57.235Z,22.58
2022-08-18T00:12:29.909Z,25.77
2022-08-18T00:15:04.242Z,26.08
2022-08-18T00:17:32.077Z,23.27
2022-08-18T00:20:05.199Z,25.45
2022-08-18T00:22:32.060Z,27.45
2022-08-18T00:25:05.235Z,22.90
2022-08-18T00:27:32.151Z,20.35
2022-08-18T00:30:08.222Z,19.58
2022-08-18T00:32:45.288Z,18.63
2022-08-18T00:35:18.207Z,23.38
2022-08-18T00:37:52.367Z,22.48
2022-08-18T00:40:32.376Z,21.63
2022-08-18T00:43:05.330Z,21.55
2022-08-18T00:45:43.222Z,24.40
2022-08-18T00:48:12.665Z,24.50
2022-08-18T00:50:59.706Z,27.35
2022-08-18T00:53:47.252Z,26.30
2022-08-18T00:56:32.236Z,22.73
2022-08-18T00:59:11.221Z,23.55
2022-08-18T01:01:46.239Z,21.60
2022-08-18T01:04:26.240Z,18.48
2022-08-18T01:07:05.261Z,17.20
2022-08-18T01:09:39.237Z,15.43
2022-08-18T01:12:45.858Z,16.10
2022-08-18T01:15:30.342Z,21.38
2022-08-18T01:18:25.231Z,19.67
2022-08-18T01:21:45.253Z,20.42
2022-08-18T01:24:21.838Z,19.05
2022-08-18T01:26:58.262Z,19.40
2022-08-18T01:29:31.277Z,21.30
2022-08-18T01:31:57.938Z,21.02
2022-08-18T01:34:34.257Z,19.42
2022-08-18T01:37:11.250Z,16.17
2022-08-18T01:41:27.333Z,18.60
2022-08-18T01:42:32.262Z,22.38
2022-08-18T01:44:58.980Z,20.95
2022-08-18T01:47:47.909Z,21.73
2022-08-18T01:50:17.236Z,17.80
2022-08-18T01:52:50.280Z,14.85
2022-08-18T01:55:18.098Z,17.58
2022-08-18T01:57:52.538Z,15.30
2022-08-18T02:00:19.568Z,15.77
2022-08-18T02:02:57.958Z,15.55
2022-08-18T02:05:36.407Z,19.65
2022-08-18T02:08:11.273Z,15.88
2022-08-18T02:10:39.046Z,14.20
2022-08-18T02:13:06.378Z,18.42
2022-08-18T02:15:41.922Z,13.98
2022-08-18T02:18:47.056Z,17.60
2022-08-18T02:21:19.424Z,14.32
2022-08-18T02:23:54.285Z,16.63
2022-08-18T02:26:28.286Z,16.73
2022-08-18T02:29:02.951Z,17.52
2022-08-18T02:31:29.654Z,19.77
2022-08-18T02:34:03.286Z,17.23
2022-08-18T02:36:36.287Z,11.98
2022-08-18T02:39:03.113Z,11.18
2022-08-18T02:41:43.286Z,11.60
2022-08-18T02:44:23.324Z,11.20
2022-08-18T02:47:03.346Z,13.65
2022-08-18T02:49:39.169Z,15.30
2022-08-18T02:52:12.304Z,16.50
2022-08-18T02:54:45.667Z,19.05
2022-08-18T02:57:19.397Z,16.92
2022-08-18T02:59:52.373Z,21.77
2022-08-18T03:02:32.315Z,18.63
2022-08-18T03:05:05.539Z,19.65
2022-08-18T03:07:32.214Z,16.33
2022-08-18T03:10:33.147Z,12.93
2022-08-18T03:12:59.090Z,13.80
2022-08-18T03:15:39.303Z,19.17
2022-08-18T03:18:12.505Z,17.98
2022-08-18T03:20:46.315Z,13.55
2022-08-18T03:23:27.326Z,11.50
2022-08-18T03:26:03.329Z,11.95
2022-08-18T03:28:36.313Z,12.18
2022-08-18T03:31:03.000Z,12.45
2022-08-18T03:33:36.344Z,12.13
2022-08-18T03:36:15.326Z,16.45
2022-08-18T03:38:43.243Z,19.17
2022-08-18T03:41:57.543Z,15.73
2022-08-18T03:44:11.699Z,16.40
2022-08-18T03:46:47.343Z,18.45
2022-08-18T03:49:20.400Z,15.15
2022-08-18T03:51:55.341Z,18.45
2022-08-18T03:54:29.312Z,14.20
2022-08-18T03:56:56.166Z,12.55
2022-08-18T03:59:31.336Z,11.93
2022-08-18T04:01:58.284Z,11.75
2022-08-18T04:04:34.342Z,14.32
2022-08-18T04:07:06.758Z,11.35
2022-08-18T04:09:41.368Z,10.65
2022-08-18T04:12:17.295Z,11.77
2022-08-18T04:14:54.348Z,14.80
2022-08-18T04:17:31.362Z,17.17
2022-08-18T04:19:58.145Z,19.48
2022-08-18T04:22:32.356Z,17.33
2022-08-18T04:25:01.072Z,19.50
2022-08-18T04:27:35.340Z,19.73
2022-08-18T04:30:02.407Z,20.67
2022-08-18T04:32:37.386Z,19.85
2022-08-18T04:35:14.139Z,15.32
2022-08-18T04:37:41.857Z,12.35
2022-08-18T04:40:18.336Z,16.23
2022-08-18T04:42:54.371Z,18.33
2022-08-18T04:45:21.072Z,16.67
2022-08-18T04:47:54.415Z,17.65
2022-08-18T04:50:21.401Z,17.00
2022-08-18T04:53:13.368Z,17.67
2022-08-18T04:55:52.385Z,22.45
2022-08-18T04:58:20.635Z,24.05
2022-08-18T05:01:03.821Z,23.23
2022-08-18T05:03:37.979Z,21.75
2022-08-18T05:06:17.756Z,24.23
2022-08-18T05:08:51.418Z,21.83
2022-08-18T05:11:18.118Z,21.13
2022-08-18T05:13:44.824Z,16.92
2022-08-18T05:16:24.645Z,16.95
2022-08-18T05:19:03.050Z,16.73
2022-08-18T05:21:33.765Z,13.00
2022-08-18T05:24:12.385Z,15.70
2022-08-18T05:26:48.421Z,19.23
2022-08-18T05:29:22.394Z,20.13
2022-08-18T05:31:52.490Z,23.55
2022-08-18T05:34:28.429Z,27.08
2022-08-18T05:37:11.430Z,25.77
2022-08-18T05:39:53.695Z,17.60
2022-08-18T05:42:29.396Z,20.10
2022-08-18T05:44:56.529Z,19.45
2022-08-18T05:47:39.490Z,20.25
2022-08-18T05:50:10.501Z,23.02
2022-08-18T05:52:45.403Z,19.83
2022-08-18T05:55:45.922Z,20.95
2022-08-18T06:01:08.890Z,25.83
2022-08-18T06:03:55.427Z,20.55
2022-08-18T06:06:32.436Z,19.63
2022-08-18T06:09:03.657Z,17.05
2022-08-18T06:11:30.454Z,15.27
2022-08-18T06:14:03.435Z,16.65
2022-08-18T06:16:45.428Z,16.50
2022-08-18T06:19:39.046Z,17.30
2022-08-18T06:22:52.523Z,23.10
2022-08-18T06:26:00.439Z,16.55
2022-08-18T06:28:55.418Z,13.77
2022-08-18T06:31:48.343Z,18.58
2022-08-18T06:34:32.585Z,14.15
2022-08-18T06:37:17.426Z,14.88
2022-08-18T06:39:51.755Z,16.38
2022-08-18T06:42:32.440Z,15.98
2022-08-18T06:45:03.443Z,15.18
2022-08-18T06:48:17.446Z,18.00
2022-08-18T06:50:57.553Z,14.15
2022-08-18T06:54:11.448Z,15.43
2022-08-18T06:56:41.216Z,17.05
2022-08-18T06:59:31.507Z,17.05
2022-08-18T07:02:10.593Z,19.13
2022-08-18T07:05:04.477Z,20.83
2022-08-18T07:07:42.105Z,17.65
2022-08-18T07:10:21.449Z,20.55
2022-08-18T07:12:48.162Z,14.18
2022-08-18T07:15:31.467Z,18.02
2022-08-18T07:18:06.392Z,23.15
2022-08-18T07:20:52.467Z,22.05
2022-08-18T07:23:29.452Z,20.40
2022-08-18T07:26:01.006Z,17.25
2022-08-18T07:28:50.454Z,19.33
2022-08-18T07:31:20.200Z,23.92
2022-08-18T07:34:03.484Z,24.52
2022-08-18T07:36:35.480Z,24.63
2022-08-18T07:39:16.848Z,29.73
2022-08-18T07:41:52.364Z,28.38
2022-08-18T07:44:35.529Z,21.08
2022-08-18T07:47:18.505Z,30.98
2022-08-18T07:50:15.620Z,29.85
2022-08-18T07:52:57.482Z,34.30
2022-08-18T07:55:37.470Z,34.80
2022-08-18T07:58:10.005Z,31.15
2022-08-18T08:00:59.124Z,32.83
2022-08-18T08:03:38.284Z,33.67
2022-08-18T08:06:32.514Z,29.88
2022-08-18T08:09:18.883Z,30.75
2022-08-18T08:12:08.490Z,32.75
2022-08-18T08:14:42.501Z,29.10
2022-08-18T08:17:30.509Z,31.17
2022-08-18T08:20:15.495Z,32.70
2022-08-18T08:23:00.107Z,30.10
2022-08-18T08:25:52.870Z,29.13
2022-08-18T08:28:38.475Z,33.10
2022-08-18T08:31:38.724Z,32.45
2022-08-18T08:34:27.479Z,31.65
2022-08-18T08:37:08.523Z,33.10
2022-08-18T08:40:01.575Z,33.72
2022-08-18T08:42:40.214Z,28.38
2022-08-18T08:45:20.505Z,32.08
2022-08-18T08:47:50.302Z,33.40
2022-08-18T08:50:29.496Z,31.65
2022-08-18T08:53:26.569Z,35.00
2022-08-18T08:56:02.671Z,35.35
2022-08-18T08:58:57.518Z,30.38
2022-08-18T09:01:36.546Z,31.20
2022-08-18T09:04:34.760Z,30.35
2022-08-18T09:07:38.301Z,32.72
2022-08-18T09:10:23.526Z,29.73
2022-08-18T09:13:16.513Z,32.03
2022-08-18T09:16:34.541Z,23.55
2022-08-18T09:19:29.130Z,30.40
2022-08-18T09:22:30.532Z,29.13
2022-08-18T09:25:05.356Z,33.60
2022-08-18T09:28:09.395Z,34.33
2022-08-18T09:31:14.526Z,34.50
2022-08-18T09:34:07.189Z,30.55
2022-08-18T09:37:08.536Z,31.85
2022-08-18T09:40:10.852Z,30.58
2022-08-18T09:42:48.608Z,29.45
2022-08-18T09:45:39.541Z,27.30
2022-08-18T09:48:13.901Z,27.23
2022-08-18T09:50:58.548Z,26.58
2022-08-18T09:53:54.134Z,28.90
2022-08-18T09:56:58.543Z,26.23
2022-08-18T09:59:35.035Z,22.83
2022-08-18T10:02:28.083Z,27.55
2022-08-18T10:05:26.539Z,22.50
2022-08-18T10:08:06.749Z,21.98
2022-08-18T10:11:02.356Z,24.05
2022-08-18T10:13:59.328Z,21.63
2022-08-18T10:20:25.803Z,24.80
2022-08-18T10:23:02.971Z,17.17
2022-08-18T10:25:54.566Z,15.63
2022-08-18T10:28:58.568Z,16.08
2022-08-18T10:31:27.381Z,20.23
2022-08-18T10:34:17.163Z,14.10
2022-08-18T10:37:06.464Z,13.98
2022-08-18T10:39:45.649Z,18.90
2022-08-18T10:42:54.907Z,18.98
2022-08-18T10:45:41.567Z,20.92
2022-08-18T10:48:29.295Z,14.55
2022-08-18T10:54:35.583Z,20.48
2022-08-18T10:57:47.599Z,18.33
2022-08-18T11:00:19.820Z,20.27
2022-08-18T11:03:50.169Z,18.95
2022-08-18T11:06:18.072Z,18.07
2022-08-18T11:08:58.585Z,19.02
2022-08-18T11:11:42.098Z,17.80
2022-08-18T11:14:41.190Z,17.30
2022-08-18T11:17:45.593Z,16.10
2022-08-18T11:20:23.614Z,19.17
2022-08-18T11:23:03.593Z,16.48
2022-08-18T11:25:32.123Z,18.05
2022-08-18T11:28:07.609Z,18.95
2022-08-18T11:30:37.426Z,16.83
2022-08-18T11:33:07.145Z,16.13
2022-08-18T11:35:55.611Z,14.70
2022-08-18T11:41:24.261Z,18.73
2022-08-18T11:44:04.049Z,15.32
2022-08-18T11:46:42.980Z,14.35
2022-08-18T11:49:51.620Z,13.07
2022-08-18T11:52:36.616Z,13.15
2022-08-18T11:55:16.938Z,12.98
2022-08-18T11:58:00.637Z,14.50
2022-08-18T12:03:50.608Z,13.30
2022-08-18T12:06:32.715Z,13.85
2022-08-18T12:10:07.671Z,13.40
2022-08-18T12:12:28.632Z,12.38
2022-08-18T12:17:54.071Z,12.63
2022-08-18T12:20:22.573Z,11.68
2022-08-18T12:22:56.797Z,12.05
2022-08-18T12:25:30.630Z,12.90
2022-08-18T12:28:04.674Z,12.68
2022-08-18T12:30:37.911Z,12.27
2022-08-18T12:33:15.856Z,12.02
2022-08-18T12:35:44.702Z,12.35
2022-08-18T12:38:19.658Z,11.77
2022-08-18T12:40:52.634Z,11.50
2022-08-18T12:43:25.663Z,13.05
2022-08-18T12:46:06.658Z,13.05
2022-08-18T12:48:45.634Z,11.95
2022-08-18T12:51:13.490Z,12.00
2022-08-18T12:53:58.216Z,11.48
2022-08-18T12:56:30.413Z,11.35
2022-08-18T12:59:08.658Z,12.60
2022-08-18T13:01:36.990Z,11.98
2022-08-18T13:04:11.061Z,12.68
2022-08-18T13:07:00.140Z,11.32
2022-08-18T13:09:35.800Z,12.18
2022-08-18T13:12:25.687Z,12.63
2022-08-18T13:15:02.905Z,11.88
2022-08-18T13:17:33.774Z,12.60
2022-08-18T13:20:19.656Z,13.13
2022-08-18T13:22:48.009Z,12.68
2022-08-18T13:25:32.199Z,13.27
2022-08-18T13:28:00.433Z,13.82
2022-08-18T13:30:35.781Z,13.93
2022-08-18T13:33:34.875Z,14.63
2022-08-18T13:36:03.722Z,14.25
2022-08-18T13:38:30.457Z,12.95
2022-08-18T13:41:06.694Z,14.02
2022-08-18T13:43:38.041Z,13.77
2022-08-18T13:46:13.691Z,15.25
2022-08-18T13:48:43.087Z,15.02
2022-08-18T13:51:24.694Z,14.27
2022-08-18T13:54:17.391Z,14.18
2022-08-18T13:56:51.260Z,12.82
2022-08-18T13:59:21.550Z,13.20
2022-08-18T14:01:55.765Z,14.73
2022-08-18T14:04:29.696Z,13.30
2022-08-18T14:06:59.868Z,13.20
2022-08-18T14:09:37.798Z,13.77
2022-08-18T14:12:22.689Z,14.63
2022-08-18T14:14:58.733Z,13.52
2022-08-18T14:17:26.703Z,14.93
2022-08-18T14:20:22.074Z,13.68
2022-08-18T14:23:24.041Z,13.43
2022-08-18T14:26:19.680Z,12.05
2022-08-18T14:28:53.711Z,11.98
2022-08-18T14:31:20.675Z,13.10
2022-08-18T14:33:53.551Z,14.02
2022-08-18T14:36:30.162Z,13.63
2022-08-18T14:39:05.710Z,11.90
2022-08-18T14:41:54.527Z,12.52
2022-08-18T14:44:23.590Z,13.07
2022-08-18T14:46:57.715Z,12.95
2022-08-18T14:49:29.163Z,13.93
2022-08-18T14:54:46.334Z,11.60
2022-08-18T14:57:24.710Z,12.00
2022-08-18T14:59:51.534Z,11.98
2022-08-18T15:02:25.695Z,13.23
2022-08-18T15:04:58.890Z,12.20
2022-08-18T15:07:33.787Z,12.27
2022-08-18T15:10:15.127Z,12.35
2022-08-18T15:12:50.773Z,11.50
2022-08-18T15:15:18.535Z,11.80
2022-08-18T15:17:53.227Z,13.55
2022-08-18T15:20:29.852Z,12.63
2022-08-18T15:23:24.845Z,12.00
2022-08-18T15:26:02.930Z,11.80
2022-08-18T15:28:32.028Z,11.13
2022-08-18T15:33:58.766Z,10.75
2022-08-18T15:36:34.713Z,12.30
2022-08-18T15:39:04.700Z,11.75
2022-08-18T15:41:48.840Z,11.90
2022-08-18T15:44:20.364Z,11.85
2022-08-18T15:46:58.733Z,11.57
2022-08-18T15:49:25.789Z,12.18
2022-08-18T15:52:00.788Z,12.52
2022-08-18T15:54:33.856Z,11.98
2022-08-18T15:57:06.740Z,12.52
2022-08-18T15:59:39.732Z,12.13
2022-08-18T16:02:18.181Z,10.30
2022-08-18T16:04:46.094Z,10.65
2022-08-18T16:07:32.416Z,12.00
2022-08-18T16:10:15.827Z,12.50
2022-08-18T16:12:45.920Z,11.38
2022-08-18T16:15:21.888Z,11.77
2022-08-18T16:17:50.901Z,11.52
2022-08-18T16:20:27.764Z,12.10
2022-08-18T16:22:54.658Z,11.52
2022-08-18T16:25:21.594Z,11.57
2022-08-18T16:27:54.776Z,11.93
2022-08-18T16:30:24.385Z,13.77
2022-08-18T16:32:58.762Z,12.88
2022-08-18T16:35:33.956Z,13.07
2022-08-18T16:38:14.804Z,12.27
2022-08-18T16:40:41.834Z,11.95
2022-08-18T16:43:15.776Z,12.73
2022-08-18T16:45:42.848Z,11.93
2022-08-18T16:48:14.239Z,12.82
2022-08-18T16:50:51.787Z,11.32
2022-08-18T16:53:24.793Z,11.63
2022-08-18T16:55:57.793Z,12.40
2022-08-18T16:58:49.798Z,11.77
2022-08-18T17:01:48.713Z,11.77
2022-08-18T17:04:26.801Z,12.43
2022-08-18T17:07:04.330Z,13.45
2022-08-18T17:09:39.814Z,12.23
2022-08-18T17:12:06.759Z,12.60
2022-08-18T17:14:40.794Z,11.95
2022-08-18T17:17:07.673Z,12.38
2022-08-18T17:19:42.808Z,11.10
2022-08-18T17:22:09.591Z,11.60
2022-08-18T17:24:37.605Z,12.73
2022-08-18T17:27:27.011Z,12.55
2022-08-18T17:30:18.803Z,13.07
2022-08-18T17:32:57.402Z,13.38
2022-08-18T17:38:25.809Z,13.43
2022-08-18T17:41:03.344Z,14.40
2022-08-18T17:46:32.913Z,13.23
2022-08-18T17:49:22.426Z,13.50
2022-08-18T17:51:59.862Z,12.93
2022-08-18T17:54:43.906Z,14.68
2022-08-18T17:57:33.057Z,14.07
2022-08-18T18:00:18.994Z,14.57
2022-08-18T18:02:46.803Z,14.55
2022-08-18T18:05:23.945Z,14.05
2022-08-18T18:07:56.831Z,13.48
2022-08-18T18:10:47.028Z,14.93
2022-08-18T18:13:35.841Z,15.43
2022-08-18T18:16:28.770Z,15.82
2022-08-18T18:19:04.890Z,15.13
2022-08-18T18:21:53.431Z,14.73
2022-08-18T18:24:38.945Z,15.50
2022-08-18T18:27:26.959Z,14.88
2022-08-18T18:30:03.848Z,15.02
2022-08-18T18:32:59.124Z,15.02
2022-08-18T18:35:37.845Z,14.30
2022-08-18T18:38:37.831Z,15.25
2022-08-18T18:41:12.405Z,13.98
2022-08-18T18:43:52.854Z,15.88
2022-08-18T18:46:38.827Z,14.57
2022-08-18T18:49:24.944Z,14.65
2022-08-18T18:52:00.848Z,14.43
2022-08-18T18:55:02.388Z,15.43
2022-08-18T18:57:56.852Z,14.65
2022-08-18T19:00:53.561Z,15.13
2022-08-18T19:03:36.859Z,15.02
2022-08-18T19:06:15.943Z,13.77
2022-08-18T19:09:00.876Z,13.68
2022-08-18T19:11:59.878Z,14.20
2022-08-18T19:14:42.873Z,13.90
2022-08-18T19:17:48.965Z,15.20
2022-08-18T19:20:24.612Z,14.75
2022-08-18T19:23:05.873Z,15.55
2022-08-18T19:25:48.309Z,16.13
2022-08-18T19:29:12.754Z,16.77
2022-08-18T19:31:29.108Z,15.50
2022-08-18T19:34:08.443Z,15.25
2022-08-18T19:37:18.285Z,15.43
2022-08-18T19:40:24.905Z,16.00
2022-08-18T19:43:06.261Z,14.77
2022-08-18T19:46:16.863Z,16.50
2022-08-18T19:48:58.705Z,17.00
2022-08-18T19:51:48.867Z,16.65
2022-08-18T19:54:36.599Z,17.27
2022-08-18T19:57:55.873Z,16.27
2022-08-18T20:00:50.953Z,15.80
2022-08-18T20:03:18.487Z,15.07
2022-08-18T20:06:33.252Z,16.20
2022-08-18T20:09:15.944Z,16.13
2022-08-18T20:12:12.893Z,17.58
2022-08-18T20:14:48.903Z,18.15
2022-08-18T20:17:26.910Z,18.52
2022-08-18T20:20:01.025Z,18.95
2022-08-18T20:22:37.882Z,18.20
2022-08-18T20:25:23.939Z,18.40
2022-08-18T20:28:05.907Z,17.17
2022-08-18T20:30:37.342Z,17.73
2022-08-18T20:33:25.708Z,16.73
2022-08-18T20:35:58.567Z,17.73
2022-08-18T20:38:56.917Z,17.55
2022-08-18T20:41:23.575Z,18.15
2022-08-18T20:44:28.617Z,18.08
2022-08-18T20:47:11.138Z,17.20
2022-08-18T20:50:12.915Z,19.00
2022-08-18T20:53:14.863Z,19.45
2022-08-18T20:56:31.696Z,21.77
2022-08-18T20:59:25.740Z,17.42
2022-08-18T21:02:02.971Z,17.45
2022-08-18T21:04:42.849Z,18.67
2022-08-18T21:07:35.900Z,19.10
2022-08-18T21:10:32.045Z,19.55
2022-08-18T21:13:15.917Z,16.33
2022-08-18T21:15:48.902Z,15.13
2022-08-18T21:18:34.924Z,15.75
2022-08-18T21:21:11.940Z,18.83
2022-08-18T21:23:47.012Z,18.77
2022-08-18T21:26:21.937Z,17.88
2022-08-18T21:29:07.933Z,19.23
2022-08-18T21:31:42.206Z,19.23
2022-08-18T21:34:45.042Z,15.50
2022-08-18T21:37:14.543Z,19.60
2022-08-18T21:40:04.029Z,19.60
2022-08-18T21:42:51.541Z,18.00
2022-08-18T21:45:28.939Z,17.98
2022-08-18T21:48:08.930Z,19.55
2022-08-18T21:50:41.946Z,21.38
2022-08-18T21:53:24.959Z,21.80
2022-08-18T21:56:02.931Z,17.90
2022-08-18T21:58:56.949Z,16.95
2022-08-18T22:01:35.936Z,19.77
2022-08-18T22:04:25.095Z,18.48
2022-08-18T22:07:03.948Z,19.08
2022-08-18T22:10:19.789Z,17.45
2022-08-18T22:13:22.955Z,18.60
2022-08-18T22:15:56.937Z,20.00
2022-08-18T22:18:43.960Z,21.55
2022-08-18T22:21:32.141Z,22.33
2022-08-18T22:24:24.968Z,20.85
2022-08-18T22:29:58.959Z,19.80
2022-08-18T22:32:32.973Z,21.75
2022-08-18T22:34:59.694Z,23.25
2022-08-18T22:37:36.959Z,23.60
2022-08-18T22:40:17.013Z,23.55
2022-08-18T22:42:49.060Z,16.30
2022-08-18T22:45:15.923Z,19.63
2022-08-18T22:47:48.980Z,17.33
2022-08-18T22:50:15.711Z,23.10
2022-08-18T22:52:47.229Z,18.27
2022-08-18T22:55:24.314Z,19.50
2022-08-18T22:57:55.653Z,18.33
2022-08-18T23:00:29.978Z,21.38
2022-08-18T23:03:06.463Z,19.63
2022-08-18T23:05:39.985Z,17.00
2022-08-18T23:08:07.605Z,19.08
2022-08-18T23:10:43.986Z,20.27
2022-08-18T23:13:17.985Z,15.90
2022-08-18T23:15:54.996Z,22.52
2022-08-18T23:18:49.980Z,23.60
2022-08-18T23:21:34.593Z,22.00
2022-08-18T23:24:12.987Z,23.30
2022-08-18T23:26:40.417Z,21.27
2022-08-18T23:29:11.384Z,24.00
2022-08-18T23:31:46.979Z,22.90
2022-08-18T23:34:17.437Z,23.55
2022-08-18T23:36:53.049Z,18.90
2022-08-18T23:39:28.121Z,19.58
2022-08-18T23:42:02.002Z,20.33
2022-08-18T23:44:29.060Z,19.25
2022-08-18T23:47:03.996Z,22.73
2022-08-18T23:49:37.028Z,22.40
2022-08-18T23:52:04.091Z,21.88
2022-08-18T23:54:41.027Z,24.63
2022-08-18T23:57:14.021Z,25.17
2022-08-18T23:59:47.004Z,25.83
